Time;durP1;ratioP1;P1;durP2;ratioP2;P2;SDS_P1;SDS_P2;PMS_P1;PMS_P2;Temp;Humidity;BMP_temperature;BMP_pressure;BME280_temperature;BME280_humidity;BME280_pressure;Samples;Min_cycle;Max_cycle;Signal;HPM_P1;HPM_P2
2022/11/24 00:00:16;;;;;;;12.73;2.90;;;;;;;;;;509093;28;1540;-61
2022/11/24 00:00:31;;;;;;;12.57;2.63;;;;;;;;;;509623;28;1121;-60
2022/11/24 00:00:46;;;;;;;13.50;2.90;;;;;;;;;;512172;28;1105;-61
2022/11/24 00:01:07;;;;;;;15.70;2.93;;;;;;;;;;510917;28;1213;-60
2022/11/24 00:01:26;;;;;;;15.52;2.80;;;;;;;;;;510609;28;1285;-60
2022/11/24 00:01:41;;;;;;;13.18;2.97;;;;;;;;;;510983;28;1969;-60
2022/11/24 00:01:57;;;;;;;13.00;3.30;;;;;;;;;;512024;28;1109;-61
2022/11/24 00:02:12;;;;;;;13.70;3.37;;;;;;;;;;510422;28;1151;-61
2022/11/24 00:02:28;;;;;;;13.57;3.10;;;;;;;;;;512055;28;1135;-61
2022/11/24 00:02:43;;;;;;;13.57;3.00;;;;;;;;;;509542;28;1183;-60
2022/11/24 00:02:59;;;;;;;13.50;2.95;;;;;;;;;;511882;28;1151;-60
2022/11/24 00:03:14;;;;;;;12.97;2.80;;;;;;;;;;511965;28;1214;-60
2022/11/24 00:03:29;;;;;;;12.02;2.63;;;;;;;;;;511384;28;1282;-60
2022/11/24 00:03:52;;;;;;;13.00;3.00;;;;;;;;;;512000;28;1184;-60
2022/11/24 00:04:10;;;;;;;12.85;3.03;;;;;;;;;;509884;28;1123;-60
2022/11/24 00:04:25;;;;;;;13.80;3.00;;;;;;;;;;508827;28;1249;-60
2022/11/24 00:04:41;;;;;;;13.90;3.00;;;;;;;;;;510324;28;1265;-60
2022/11/24 00:04:56;;;;;;;14.47;2.87;;;;;;;;;;509062;28;1351;-60
2022/11/24 00:05:11;;;;;;;14.05;3.05;;;;;;;;;;510515;28;1272;-60
2022/11/24 00:05:26;;;;;;;11.53;3.00;;;;;;;;;;511367;28;1151;-60
2022/11/24 00:05:42;;;;;;;13.73;3.00;;;;;;;;;;505810;28;1189;-60
2022/11/24 00:06:06;;;;;;;15.80;2.97;;;;;;;;;;507341;29;1133;-60
2022/11/24 00:06:22;;;;;;;11.82;2.80;;;;;;;;;;508438;28;1164;-60
2022/11/24 00:06:37;;;;;;;11.95;2.63;;;;;;;;;;508186;28;1200;-60
2022/11/24 00:06:53;;;;;;;12.47;2.87;;;;;;;;;;510632;28;1330;-60
2022/11/24 00:07:08;;;;;;;13.27;3.08;;;;;;;;;;510219;28;1361;-60
2022/11/24 00:07:23;;;;;;;13.40;2.90;;;;;;;;;;508886;28;1177;-60
2022/11/24 00:07:38;;;;;;;14.13;3.00;;;;;;;;;;511197;28;1346;-60
2022/11/24 00:07:54;;;;;;;12.90;2.90;;;;;;;;;;511095;28;1321;-61
2022/11/24 00:08:09;;;;;;;11.10;2.78;;;;;;;;;;511857;28;1493;-60
2022/11/24 00:08:24;;;;;;;13.40;2.80;;;;;;;;;;510250;28;1431;-61
2022/11/24 00:08:42;;;;;;;14.03;2.83;;;;;;;;;;508896;28;1191;-61
2022/11/24 00:08:58;;;;;;;13.60;2.83;;;;;;;;;;508667;28;1101;-60
2022/11/24 00:09:13;;;;;;;13.10;2.75;;;;;;;;;;510304;28;1220;-60
2022/11/24 00:09:28;;;;;;;12.70;2.70;;;;;;;;;;510434;28;1268;-60
2022/11/24 00:09:44;;;;;;;14.57;2.73;;;;;;;;;;509973;28;1061;-60
2022/11/24 00:09:59;;;;;;;14.70;2.80;;;;;;;;;;508617;28;1378;-61
2022/11/24 00:10:14;;;;;;;11.40;2.70;;;;;;;;;;510626;28;1169;-60
2022/11/24 00:10:30;;;;;;;11.20;2.80;;;;;;;;;;512153;28;1242;-60
2022/11/24 00:10:45;;;;;;;10.77;3.03;;;;;;;;;;510481;28;1169;-60
2022/11/24 00:11:09;;;;;;;10.87;2.80;;;;;;;;;;509066;28;1203;-60
2022/11/24 00:11:30;;;;;;;12.05;2.75;;;;;;;;;;510016;28;1205;-60
2022/11/24 00:11:45;;;;;;;14.90;2.72;;;;;;;;;;510042;28;1038;-61
2022/11/24 00:12:00;;;;;;;12.93;2.60;;;;;;;;;;510572;28;1207;-60
2022/11/24 00:12:15;;;;;;;11.57;2.83;;;;;;;;;;506848;28;2561;-60
2022/11/24 00:12:31;;;;;;;12.55;2.90;;;;;;;;;;507582;28;1290;-60
2022/11/24 00:12:46;;;;;;;12.50;2.70;;;;;;;;;;509146;28;1337;-60
2022/11/24 00:13:01;;;;;;;12.53;2.60;;;;;;;;;;508351;29;1172;-61
2022/11/24 00:13:17;;;;;;;12.68;2.70;;;;;;;;;;509582;28;1061;-60
2022/11/24 00:13:33;;;;;;;12.20;2.90;;;;;;;;;;508714;28;1348;-60
2022/11/24 00:13:49;;;;;;;10.45;2.85;;;;;;;;;;510247;28;1240;-60
2022/11/24 00:14:05;;;;;;;10.65;2.90;;;;;;;;;;509695;28;1089;-60
2022/11/24 00:14:20;;;;;;;14.55;2.95;;;;;;;;;;509524;28;1131;-60
2022/11/24 00:14:35;;;;;;;15.13;2.77;;;;;;;;;;510175;28;1061;-60
2022/11/24 00:14:51;;;;;;;12.27;2.50;;;;;;;;;;510174;28;1060;-60
2022/11/24 00:15:06;;;;;;;13.77;2.77;;;;;;;;;;509086;28;2140;-60
2022/11/24 00:15:21;;;;;;;13.40;3.10;;;;;;;;;;511451;28;1329;-60
2022/11/24 00:15:37;;;;;;;13.00;3.13;;;;;;;;;;512322;28;1196;-60
2022/11/24 00:15:52;;;;;;;14.50;3.00;;;;;;;;;;510849;28;1199;-61
2022/11/24 00:16:10;;;;;;;15.30;3.00;;;;;;;;;;510564;28;1373;-60
2022/11/24 00:16:32;;;;;;;13.35;3.03;;;;;;;;;;512686;28;1230;-60
2022/11/24 00:16:47;;;;;;;11.68;2.97;;;;;;;;;;511524;28;1109;-60
2022/11/24 00:17:02;;;;;;;12.27;3.00;;;;;;;;;;512397;28;1285;-60
2022/11/24 00:17:17;;;;;;;13.52;2.95;;;;;;;;;;512468;28;1261;-60
2022/11/24 00:17:33;;;;;;;14.37;2.80;;;;;;;;;;510949;28;1316;-61
2022/11/24 00:17:48;;;;;;;14.90;2.90;;;;;;;;;;511832;28;1261;-61
2022/11/24 00:18:03;;;;;;;15.13;3.10;;;;;;;;;;512203;28;1500;-60
2022/11/24 00:18:19;;;;;;;14.50;3.10;;;;;;;;;;512657;28;1152;-61
2022/11/24 00:18:34;;;;;;;12.33;2.80;;;;;;;;;;509308;28;1221;-61
2022/11/24 00:18:51;;;;;;;10.90;2.50;;;;;;;;;;505360;28;2265;-60
2022/11/24 00:19:08;;;;;;;10.80;2.60;;;;;;;;;;506979;28;1177;-60
2022/11/24 00:19:23;;;;;;;12.90;2.83;;;;;;;;;;507988;28;1522;-60
2022/11/24 00:19:38;;;;;;;15.70;3.20;;;;;;;;;;509025;29;1088;-60
2022/11/24 00:19:54;;;;;;;17.20;3.27;;;;;;;;;;508243;28;1049;-60
2022/11/24 00:20:09;;;;;;;15.85;3.10;;;;;;;;;;507020;28;1063;-60
2022/11/24 00:20:26;;;;;;;14.50;3.00;;;;;;;;;;509251;28;1035;-60
2022/11/24 00:20:41;;;;;;;13.23;2.90;;;;;;;;;;510920;28;1348;-60
2022/11/24 00:20:56;;;;;;;14.07;2.83;;;;;;;;;;511218;28;1082;-60
2022/11/24 00:21:13;;;;;;;15.13;2.97;;;;;;;;;;513055;28;1069;-61
2022/11/24 00:21:30;;;;;;;13.40;3.05;;;;;;;;;;511999;28;1524;-60
2022/11/24 00:21:45;;;;;;;11.80;3.00;;;;;;;;;;511992;28;1975;-60
2022/11/24 00:22:00;;;;;;;13.90;2.90;;;;;;;;;;511964;28;1107;-60
2022/11/24 00:22:16;;;;;;;11.97;2.60;;;;;;;;;;512560;28;1379;-60
2022/11/24 00:22:31;;;;;;;10.97;2.50;;;;;;;;;;510982;28;1213;-60
2022/11/24 00:22:46;;;;;;;13.53;2.80;;;;;;;;;;512608;28;1138;-60
2022/11/24 00:23:01;;;;;;;14.17;2.80;;;;;;;;;;508990;28;1339;-60
2022/11/24 00:23:17;;;;;;;14.27;2.80;;;;;;;;;;511223;28;1415;-61
2022/11/24 00:23:32;;;;;;;13.80;2.83;;;;;;;;;;510504;28;1365;-60
2022/11/24 00:23:49;;;;;;;11.90;2.80;;;;;;;;;;511217;28;1219;-60
2022/11/24 00:24:05;;;;;;;10.68;2.85;;;;;;;;;;508922;28;1183;-60
2022/11/24 00:24:20;;;;;;;10.73;2.90;;;;;;;;;;510430;28;1005;-61
2022/11/24 00:24:35;;;;;;;13.00;2.90;;;;;;;;;;508439;29;1183;-60
2022/11/24 00:24:50;;;;;;;13.43;3.03;;;;;;;;;;505401;28;1408;-61
2022/11/24 00:25:06;;;;;;;12.90;3.10;;;;;;;;;;508162;28;1156;-61
2022/11/24 00:25:21;;;;;;;13.07;2.70;;;;;;;;;;507003;28;1055;-61
2022/11/24 00:25:37;;;;;;;14.77;2.87;;;;;;;;;;509974;28;1646;-60
2022/11/24 00:25:52;;;;;;;14.10;2.90;;;;;;;;;;509877;28;1187;-60
2022/11/24 00:26:10;;;;;;;11.07;2.53;;;;;;;;;;506855;28;1160;-61
2022/11/24 00:26:28;;;;;;;13.93;2.90;;;;;;;;;;507747;28;1872;-60
2022/11/24 00:26:44;;;;;;;13.80;3.10;;;;;;;;;;507191;29;1578;-60
2022/11/24 00:26:59;;;;;;;12.87;3.00;;;;;;;;;;507294;28;1171;-60
2022/11/24 00:27:14;;;;;;;11.40;2.78;;;;;;;;;;507013;28;1062;-60
2022/11/24 00:27:29;;;;;;;9.47;2.60;;;;;;;;;;507974;28;1239;-60
2022/11/24 00:27:45;;;;;;;10.23;2.53;;;;;;;;;;506484;29;1425;-60
2022/11/24 00:28:00;;;;;;;11.48;2.58;;;;;;;;;;507613;29;1077;-60
2022/11/24 00:28:15;;;;;;;13.80;2.87;;;;;;;;;;507114;28;1281;-61
2022/11/24 00:28:32;;;;;;;14.77;2.97;;;;;;;;;;508045;28;1222;-60
2022/11/24 00:28:50;;;;;;;13.13;2.90;;;;;;;;;;508025;28;1247;-60
2022/11/24 00:29:06;;;;;;;12.15;2.80;;;;;;;;;;506926;28;1203;-60
2022/11/24 00:29:22;;;;;;;13.05;2.70;;;;;;;;;;508307;28;1289;-60
2022/11/24 00:29:37;;;;;;;13.70;2.97;;;;;;;;;;507935;29;1033;-60
2022/11/24 00:29:52;;;;;;;13.77;3.10;;;;;;;;;;509040;28;1795;-60
2022/11/24 00:30:09;;;;;;;15.17;3.13;;;;;;;;;;509798;28;1149;-60
2022/11/24 00:30:24;;;;;;;14.80;3.10;;;;;;;;;;511097;28;1285;-60
2022/11/24 00:30:39;;;;;;;16.83;3.00;;;;;;;;;;510784;28;1453;-60
2022/11/24 00:30:55;;;;;;;16.97;2.80;;;;;;;;;;510094;28;1188;-60
2022/11/24 00:31:17;;;;;;;14.53;2.73;;;;;;;;;;510147;28;1164;-60
2022/11/24 00:31:35;;;;;;;14.00;2.67;;;;;;;;;;511214;28;1137;-60
2022/11/24 00:31:51;;;;;;;12.13;2.72;;;;;;;;;;509875;28;1320;-60
2022/11/24 00:32:06;;;;;;;11.98;2.90;;;;;;;;;;511549;28;1211;-60
2022/11/24 00:32:21;;;;;;;12.20;2.77;;;;;;;;;;513649;28;1217;-61
2022/11/24 00:32:37;;;;;;;12.77;2.80;;;;;;;;;;514334;28;1152;-60
2022/11/24 00:32:52;;;;;;;13.37;3.07;;;;;;;;;;513302;28;1187;-60
2022/11/24 00:33:07;;;;;;;13.23;3.10;;;;;;;;;;512468;28;1215;-60
2022/11/24 00:33:22;;;;;;;11.73;3.03;;;;;;;;;;513280;28;1119;-60
2022/11/24 00:33:38;;;;;;;12.15;2.78;;;;;;;;;;510843;28;1643;-60
2022/11/24 00:33:55;;;;;;;13.70;2.97;;;;;;;;;;511314;28;1697;-61
2022/11/24 00:34:13;;;;;;;14.38;2.97;;;;;;;;;;509519;28;1424;-61
2022/11/24 00:34:28;;;;;;;13.38;2.67;;;;;;;;;;508359;28;1764;-61
2022/11/24 00:34:43;;;;;;;13.20;2.77;;;;;;;;;;507875;28;1579;-61
2022/11/24 00:34:59;;;;;;;11.10;2.63;;;;;;;;;;507018;28;1194;-61
2022/11/24 00:35:14;;;;;;;9.30;2.50;;;;;;;;;;506668;28;1214;-61
2022/11/24 00:35:29;;;;;;;10.10;2.60;;;;;;;;;;510788;28;1057;-61
2022/11/24 00:35:45;;;;;;;13.40;2.95;;;;;;;;;;510004;28;1326;-61
2022/11/24 00:36:00;;;;;;;15.50;3.00;;;;;;;;;;510757;28;1097;-61
2022/11/24 00:36:17;;;;;;;12.73;2.70;;;;;;;;;;509002;28;1235;-61
2022/11/24 00:36:34;;;;;;;10.27;2.70;;;;;;;;;;509563;28;1287;-61
2022/11/24 00:36:50;;;;;;;13.23;3.08;;;;;;;;;;511987;28;1147;-61
2022/11/24 00:37:05;;;;;;;15.23;3.13;;;;;;;;;;511006;28;1129;-61
2022/11/24 00:37:20;;;;;;;12.13;2.73;;;;;;;;;;512193;28;1041;-61
2022/11/24 00:37:36;;;;;;;11.82;2.80;;;;;;;;;;510826;28;1082;-59
2022/11/24 00:37:52;;;;;;;11.80;2.87;;;;;;;;;;514560;28;1182;-60
2022/11/24 00:38:08;;;;;;;11.45;2.88;;;;;;;;;;513447;28;1021;-59
2022/11/24 00:38:23;;;;;;;10.83;2.80;;;;;;;;;;515554;28;1159;-60
2022/11/24 00:38:39;;;;;;;10.63;2.70;;;;;;;;;;513969;28;1068;-59
2022/11/24 00:38:59;;;;;;;11.70;2.70;;;;;;;;;;514437;28;1186;-59
2022/11/24 00:39:15;;;;;;;12.52;2.67;;;;;;;;;;515133;28;1154;-60
2022/11/24 00:39:30;;;;;;;14.52;3.05;;;;;;;;;;513917;28;1225;-60
2022/11/24 00:39:45;;;;;;;14.77;3.37;;;;;;;;;;513285;28;1303;-60
2022/11/24 00:40:00;;;;;;;13.30;2.83;;;;;;;;;;511801;28;1199;-60
2022/11/24 00:40:16;;;;;;;13.27;2.77;;;;;;;;;;511851;28;1266;-60
2022/11/24 00:40:31;;;;;;;13.60;3.03;;;;;;;;;;510550;28;1201;-60
2022/11/24 00:40:46;;;;;;;13.15;2.90;;;;;;;;;;510680;28;1132;-60
2022/11/24 00:41:02;;;;;;;12.80;2.73;;;;;;;;;;509453;28;1320;-60
2022/11/24 00:41:17;;;;;;;12.97;2.77;;;;;;;;;;509143;28;1187;-59
2022/11/24 00:41:33;;;;;;;13.90;2.87;;;;;;;;;;510591;28;1283;-59
2022/11/24 00:41:48;;;;;;;14.88;2.97;;;;;;;;;;512709;28;1926;-61
2022/11/24 00:42:04;;;;;;;13.43;2.83;;;;;;;;;;508656;28;1320;-60
2022/11/24 00:42:19;;;;;;;11.77;2.93;;;;;;;;;;509076;28;1358;-60
2022/11/24 00:42:34;;;;;;;12.93;2.92;;;;;;;;;;510050;28;1241;-60
2022/11/24 00:42:49;;;;;;;13.47;2.90;;;;;;;;;;511196;28;1210;-60
2022/11/24 00:43:05;;;;;;;15.40;3.03;;;;;;;;;;510812;28;2304;-60
2022/11/24 00:43:20;;;;;;;14.23;2.90;;;;;;;;;;509000;28;1512;-60
2022/11/24 00:43:35;;;;;;;11.40;2.78;;;;;;;;;;509091;28;2205;-60
2022/11/24 00:43:52;;;;;;;11.40;2.70;;;;;;;;;;511236;28;1163;-60
2022/11/24 00:44:07;;;;;;;11.52;2.58;;;;;;;;;;513656;28;1160;-60
2022/11/24 00:44:23;;;;;;;11.38;2.55;;;;;;;;;;512534;28;958;-60
2022/11/24 00:44:38;;;;;;;12.23;2.77;;;;;;;;;;511716;28;1128;-60
2022/11/24 00:44:54;;;;;;;13.55;3.00;;;;;;;;;;509917;28;1209;-59
2022/11/24 00:45:09;;;;;;;12.03;2.90;;;;;;;;;;511504;28;1438;-59
2022/11/24 00:45:24;;;;;;;10.75;2.70;;;;;;;;;;512719;28;1167;-60
2022/11/24 00:45:41;;;;;;;9.90;2.57;;;;;;;;;;512456;28;1073;-60
2022/11/24 00:45:56;;;;;;;11.82;2.92;;;;;;;;;;511788;28;1457;-60
2022/11/24 00:46:11;;;;;;;15.07;3.20;;;;;;;;;;512998;28;1111;-60
2022/11/24 00:46:28;;;;;;;17.07;3.10;;;;;;;;;;513584;28;1233;-60
2022/11/24 00:46:43;;;;;;;18.85;3.00;;;;;;;;;;512777;28;1438;-59
2022/11/24 00:46:58;;;;;;;16.08;2.95;;;;;;;;;;510271;28;1128;-60
2022/11/24 00:47:13;;;;;;;15.83;3.00;;;;;;;;;;513271;28;1291;-60
2022/11/24 00:47:31;;;;;;;15.13;3.00;;;;;;;;;;512334;28;1135;-60
2022/11/24 00:47:46;;;;;;;12.95;2.95;;;;;;;;;;511956;28;1171;-60
2022/11/24 00:48:02;;;;;;;14.13;3.00;;;;;;;;;;509818;28;1485;-60
2022/11/24 00:48:17;;;;;;;13.43;2.67;;;;;;;;;;512784;28;1096;-60
2022/11/24 00:48:32;;;;;;;12.50;2.60;;;;;;;;;;513200;28;1324;-60
2022/11/24 00:48:48;;;;;;;14.40;2.90;;;;;;;;;;512445;28;1483;-60
2022/11/24 00:49:04;;;;;;;16.05;3.05;;;;;;;;;;512551;28;1165;-60
2022/11/24 00:49:19;;;;;;;14.88;2.90;;;;;;;;;;509204;28;1651;-60
2022/11/24 00:49:35;;;;;;;14.53;2.70;;;;;;;;;;511647;28;1229;-60
2022/11/24 00:49:50;;;;;;;13.05;2.70;;;;;;;;;;510325;28;1369;-60
2022/11/24 00:50:06;;;;;;;13.17;2.90;;;;;;;;;;509447;28;1160;-60
2022/11/24 00:50:21;;;;;;;12.88;2.85;;;;;;;;;;508457;28;1261;-60
2022/11/24 00:50:37;;;;;;;16.27;3.00;;;;;;;;;;509131;28;1124;-60
2022/11/24 00:51:11;;;;;;;16.20;3.28;;;;;;;;;;510635;28;1131;-59
2022/11/24 00:51:29;;;;;;;15.82;3.03;;;;;;;;;;509424;28;1279;-60
2022/11/24 00:51:45;;;;;;;12.82;2.65;;;;;;;;;;510433;28;1092;-60
2022/11/24 00:52:00;;;;;;;12.85;2.67;;;;;;;;;;509204;28;1353;-60
2022/11/24 00:52:15;;;;;;;13.93;2.87;;;;;;;;;;510641;28;1242;-60
2022/11/24 00:52:31;;;;;;;11.87;2.70;;;;;;;;;;511059;28;1606;-59
2022/11/24 00:52:46;;;;;;;14.75;2.88;;;;;;;;;;512091;28;1175;-60
2022/11/24 00:53:01;;;;;;;15.13;3.13;;;;;;;;;;512644;28;1135;-59
2022/11/24 00:53:16;;;;;;;12.23;3.07;;;;;;;;;;511093;28;1097;-59
2022/11/24 00:53:32;;;;;;;12.63;2.80;;;;;;;;;;512583;28;1612;-59
2022/11/24 00:53:48;;;;;;;13.13;2.83;;;;;;;;;;511166;28;1191;-59
2022/11/24 00:54:03;;;;;;;12.90;3.10;;;;;;;;;;514893;28;1092;-59
2022/11/24 00:54:19;;;;;;;14.23;3.07;;;;;;;;;;514686;28;1202;-59
2022/11/24 00:54:34;;;;;;;16.80;3.00;;;;;;;;;;513945;28;1119;-59
2022/11/24 00:54:49;;;;;;;16.00;2.90;;;;;;;;;;512605;28;1175;-59
2022/11/24 00:55:05;;;;;;;14.53;2.97;;;;;;;;;;510986;28;1258;-59
2022/11/24 00:55:20;;;;;;;14.07;2.95;;;;;;;;;;512779;28;1206;-59
2022/11/24 00:55:35;;;;;;;14.50;2.80;;;;;;;;;;510476;28;1157;-60
2022/11/24 00:55:51;;;;;;;16.70;2.90;;;;;;;;;;512323;28;1223;-58
2022/11/24 00:56:08;;;;;;;18.80;3.20;;;;;;;;;;510413;28;1258;-59
2022/11/24 00:56:24;;;;;;;17.13;3.10;;;;;;;;;;512376;28;995;-59
2022/11/24 00:56:40;;;;;;;14.05;2.90;;;;;;;;;;510849;28;1191;-59
2022/11/24 00:56:55;;;;;;;14.07;2.90;;;;;;;;;;512239;28;1690;-59
2022/11/24 00:57:10;;;;;;;17.93;2.90;;;;;;;;;;510867;28;1274;-59
2022/11/24 00:57:26;;;;;;;19.02;3.17;;;;;;;;;;512880;28;1123;-59
2022/11/24 00:57:41;;;;;;;14.07;3.13;;;;;;;;;;512096;28;1015;-59
2022/11/24 00:57:56;;;;;;;13.30;2.77;;;;;;;;;;510835;28;1294;-59
2022/11/24 00:58:11;;;;;;;13.73;2.80;;;;;;;;;;512425;28;1194;-60
2022/11/24 00:58:27;;;;;;;12.85;3.05;;;;;;;;;;510977;28;1194;-59
2022/11/24 00:58:42;;;;;;;13.53;3.03;;;;;;;;;;512917;28;1227;-59
2022/11/24 00:58:57;;;;;;;15.00;3.03;;;;;;;;;;513129;28;1323;-59
2022/11/24 00:59:13;;;;;;;15.80;3.13;;;;;;;;;;513914;28;1420;-59
2022/11/24 00:59:28;;;;;;;14.03;3.07;;;;;;;;;;514772;28;1067;-59
2022/11/24 00:59:43;;;;;;;13.30;2.97;;;;;;;;;;513219;28;1277;-60
2022/11/24 00:59:58;;;;;;;15.27;3.13;;;;;;;;;;513260;28;1014;-59
2022/11/24 01:00:14;;;;;;;13.83;3.13;;;;;;;;;;513412;28;1207;-59
2022/11/24 01:00:29;;;;;;;15.55;3.20;;;;;;;;;;512729;28;1218;-59
2022/11/24 01:00:45;;;;;;;15.93;3.03;;;;;;;;;;512919;28;1061;-59
2022/11/24 01:01:07;;;;;;;12.00;2.70;;;;;;;;;;510921;28;1274;-59
2022/11/24 01:01:26;;;;;;;14.68;2.83;;;;;;;;;;511816;28;1122;-59
2022/11/24 01:01:41;;;;;;;11.88;2.50;;;;;;;;;;511367;28;1903;-59
2022/11/24 01:01:56;;;;;;;13.60;2.65;;;;;;;;;;512623;28;1162;-59
2022/11/24 01:02:12;;;;;;;15.03;2.90;;;;;;;;;;512386;28;1155;-59
2022/11/24 01:02:27;;;;;;;13.33;2.80;;;;;;;;;;512295;28;1100;-59
2022/11/24 01:02:42;;;;;;;12.73;2.70;;;;;;;;;;510956;28;1281;-59
2022/11/24 01:02:57;;;;;;;13.45;2.92;;;;;;;;;;514170;28;1336;-59
2022/11/24 01:03:14;;;;;;;13.13;3.30;;;;;;;;;;510652;28;1192;-59
2022/11/24 01:03:29;;;;;;;12.57;3.08;;;;;;;;;;511147;28;1155;-59
2022/11/24 01:03:46;;;;;;;13.60;2.80;;;;;;;;;;508456;29;1249;-59
2022/11/24 01:04:02;;;;;;;13.43;2.95;;;;;;;;;;506491;29;1215;-61
2022/11/24 01:04:18;;;;;;;14.77;2.88;;;;;;;;;;509285;28;1092;-59
2022/11/24 01:04:33;;;;;;;13.20;2.67;;;;;;;;;;508726;28;1524;-59
2022/11/24 01:04:48;;;;;;;13.68;2.60;;;;;;;;;;510830;28;1220;-59
2022/11/24 01:05:04;;;;;;;14.63;2.67;;;;;;;;;;511471;28;1140;-59
2022/11/24 01:05:19;;;;;;;12.63;2.72;;;;;;;;;;514203;28;1110;-59
2022/11/24 01:05:36;;;;;;;11.47;2.77;;;;;;;;;;513448;28;1343;-59
2022/11/24 01:05:51;;;;;;;11.90;3.00;;;;;;;;;;512783;28;1203;-60
2022/11/24 01:06:18;;;;;;;13.73;2.92;;;;;;;;;;512238;28;1199;-60
2022/11/24 01:06:34;;;;;;;13.55;2.67;;;;;;;;;;509799;28;1481;-60
2022/11/24 01:06:50;;;;;;;11.70;2.95;;;;;;;;;;512950;28;1144;-59
2022/11/24 01:07:05;;;;;;;14.73;3.00;;;;;;;;;;512533;28;1122;-60
2022/11/24 01:07:20;;;;;;;12.00;2.63;;;;;;;;;;512490;28;1165;-59
2022/11/24 01:07:36;;;;;;;10.47;2.40;;;;;;;;;;512412;28;1282;-59
2022/11/24 01:07:51;;;;;;;11.13;2.50;;;;;;;;;;511266;28;1083;-59
2022/11/24 01:08:07;;;;;;;12.60;2.60;;;;;;;;;;512910;28;1041;-59
2022/11/24 01:08:22;;;;;;;15.95;2.88;;;;;;;;;;511840;28;1644;-59
2022/11/24 01:08:39;;;;;;;14.30;3.10;;;;;;;;;;512979;28;1155;-59
2022/11/24 01:08:56;;;;;;;12.50;3.03;;;;;;;;;;509530;28;1231;-59
2022/11/24 01:09:11;;;;;;;12.75;2.60;;;;;;;;;;513228;28;1147;-59
2022/11/24 01:09:26;;;;;;;13.67;2.67;;;;;;;;;;513233;28;1197;-59
2022/11/24 01:09:44;;;;;;;11.40;2.60;;;;;;;;;;512159;28;1363;-59
2022/11/24 01:09:59;;;;;;;12.77;2.58;;;;;;;;;;511646;28;1214;-59
2022/11/24 01:10:15;;;;;;;12.73;2.70;;;;;;;;;;512908;28;1266;-59
2022/11/24 01:10:30;;;;;;;11.82;2.55;;;;;;;;;;512333;28;1194;-59
2022/11/24 01:10:45;;;;;;;13.20;2.43;;;;;;;;;;510629;28;1327;-59
2022/11/24 01:11:09;;;;;;;13.67;2.60;;;;;;;;;;507229;28;1285;-59
2022/11/24 01:11:59;;;;;;;12.10;2.72;;;;;;;;;;508799;28;1124;-60
2022/11/24 01:12:08;;;;;;;15.00;3.00;;;;;;;;;;512712;28;1123;-61
2022/11/24 01:12:24;;;;;;;14.47;2.93;;;;;;;;;;513072;28;1095;-60
2022/11/24 01:12:39;;;;;;;12.40;2.60;;;;;;;;;;510054;28;1686;-60
2022/11/24 01:12:54;;;;;;;12.80;2.80;;;;;;;;;;511528;28;1147;-60
2022/11/24 01:13:11;;;;;;;14.60;2.90;;;;;;;;;;511951;28;1084;-60
2022/11/24 01:13:26;;;;;;;15.38;2.80;;;;;;;;;;512260;28;1218;-60
2022/11/24 01:13:44;;;;;;;13.97;2.80;;;;;;;;;;512735;28;1300;-60
2022/11/24 01:13:59;;;;;;;15.18;3.10;;;;;;;;;;511441;28;1401;-60
2022/11/24 01:14:14;;;;;;;18.07;3.07;;;;;;;;;;511679;28;1230;-60
2022/11/24 01:14:30;;;;;;;13.68;2.70;;;;;;;;;;511193;28;1440;-60
2022/11/24 01:14:46;;;;;;;10.00;2.80;;;;;;;;;;511591;28;1214;-60
2022/11/24 01:15:01;;;;;;;13.13;3.00;;;;;;;;;;511345;28;1180;-59
2022/11/24 01:15:16;;;;;;;11.57;2.67;;;;;;;;;;511124;28;1084;-60
2022/11/24 01:15:34;;;;;;;10.52;2.60;;;;;;;;;;512532;28;1135;-60
2022/11/24 01:15:50;;;;;;;15.27;2.83;;;;;;;;;;512043;28;1206;-60
2022/11/24 01:16:11;;;;;;;15.57;3.03;;;;;;;;;;511358;28;1155;-60
2022/11/24 01:16:33;;;;;;;14.48;2.95;;;;;;;;;;510219;28;2258;-59
2022/11/24 01:16:48;;;;;;;12.60;2.70;;;;;;;;;;509529;28;1109;-60
2022/11/24 01:17:04;;;;;;;12.43;2.65;;;;;;;;;;510669;28;1069;-60
2022/11/24 01:17:19;;;;;;;14.43;2.80;;;;;;;;;;510407;28;1058;-60
2022/11/24 01:17:34;;;;;;;15.23;3.07;;;;;;;;;;509463;28;1222;-59
2022/11/24 01:17:49;;;;;;;13.07;2.88;;;;;;;;;;507303;29;1180;-60
2022/11/24 01:18:05;;;;;;;11.47;2.70;;;;;;;;;;509271;28;1226;-60
2022/11/24 01:18:20;;;;;;;13.40;2.73;;;;;;;;;;510679;28;1313;-60
2022/11/24 01:18:35;;;;;;;13.80;2.72;;;;;;;;;;510314;28;1217;-60
2022/11/24 01:18:51;;;;;;;13.03;2.80;;;;;;;;;;510524;28;1193;-60
2022/11/24 01:19:07;;;;;;;13.02;2.78;;;;;;;;;;509335;28;1163;-59
2022/11/24 01:19:22;;;;;;;12.93;2.50;;;;;;;;;;510546;28;1202;-60
2022/11/24 01:19:37;;;;;;;13.67;2.60;;;;;;;;;;510312;28;1077;-59
2022/11/24 01:19:53;;;;;;;11.48;2.65;;;;;;;;;;509086;28;1116;-60
2022/11/24 01:20:08;;;;;;;12.20;2.73;;;;;;;;;;511261;28;1151;-61
2022/11/24 01:20:24;;;;;;;14.27;3.17;;;;;;;;;;509663;28;1225;-60
2022/11/24 01:20:39;;;;;;;14.10;3.30;;;;;;;;;;511087;28;1393;-60
2022/11/24 01:20:54;;;;;;;15.03;3.20;;;;;;;;;;512655;28;1295;-60
2022/11/24 01:21:10;;;;;;;13.93;3.05;;;;;;;;;;512675;28;1286;-60
2022/11/24 01:21:25;;;;;;;12.30;2.70;;;;;;;;;;512085;28;1127;-60
2022/11/24 01:21:41;;;;;;;14.07;2.75;;;;;;;;;;512712;28;1950;-60
2022/11/24 01:21:56;;;;;;;15.20;2.80;;;;;;;;;;512065;28;1580;-59
2022/11/24 01:22:12;;;;;;;12.85;2.60;;;;;;;;;;510946;28;1326;-60
2022/11/24 01:22:27;;;;;;;11.98;2.60;;;;;;;;;;512416;28;1178;-59
2022/11/24 01:22:43;;;;;;;12.57;2.67;;;;;;;;;;513122;28;1074;-58
2022/11/24 01:22:59;;;;;;;13.27;2.70;;;;;;;;;;514758;28;1131;-59
2022/11/24 01:23:14;;;;;;;16.10;2.87;;;;;;;;;;513047;28;1286;-59
2022/11/24 01:23:29;;;;;;;15.17;2.73;;;;;;;;;;514921;28;1160;-60
2022/11/24 01:23:44;;;;;;;11.70;2.55;;;;;;;;;;513956;28;1485;-60
2022/11/24 01:24:00;;;;;;;10.27;2.50;;;;;;;;;;510711;28;1207;-60
2022/11/24 01:24:15;;;;;;;10.80;2.60;;;;;;;;;;510712;28;1073;-60
2022/11/24 01:24:30;;;;;;;12.25;2.80;;;;;;;;;;510557;28;1084;-59
2022/11/24 01:24:46;;;;;;;13.93;2.77;;;;;;;;;;509851;28;1284;-60
2022/11/24 01:25:01;;;;;;;13.50;2.70;;;;;;;;;;511270;28;1056;-60
2022/11/24 01:25:16;;;;;;;13.63;2.85;;;;;;;;;;509048;28;1176;-60
2022/11/24 01:25:32;;;;;;;14.80;2.73;;;;;;;;;;510630;28;1246;-60
2022/11/24 01:25:47;;;;;;;15.60;2.87;;;;;;;;;;510831;28;1430;-60
2022/11/24 01:26:07;;;;;;;13.90;2.88;;;;;;;;;;510518;28;1214;-60
2022/11/24 01:26:22;;;;;;;13.77;2.60;;;;;;;;;;510342;28;1152;-60
2022/11/24 01:26:38;;;;;;;13.23;2.90;;;;;;;;;;508168;28;1248;-60
2022/11/24 01:26:53;;;;;;;13.67;3.10;;;;;;;;;;510824;28;1033;-60
2022/11/24 01:27:08;;;;;;;13.75;2.72;;;;;;;;;;510109;28;1284;-60
2022/11/24 01:27:23;;;;;;;15.60;2.70;;;;;;;;;;508273;28;1447;-60
2022/11/24 01:27:39;;;;;;;17.20;3.10;;;;;;;;;;509303;28;1139;-60
2022/11/24 01:27:54;;;;;;;14.18;2.88;;;;;;;;;;512370;28;1155;-60
2022/11/24 01:28:09;;;;;;;12.30;2.60;;;;;;;;;;510716;28;1202;-60
2022/11/24 01:28:25;;;;;;;15.57;2.87;;;;;;;;;;509899;28;1332;-60
2022/11/24 01:28:40;;;;;;;14.80;2.83;;;;;;;;;;509317;28;1189;-60
2022/11/24 01:28:57;;;;;;;11.55;2.60;;;;;;;;;;508550;28;1366;-60
2022/11/24 01:29:12;;;;;;;11.33;2.70;;;;;;;;;;508618;29;1219;-60
2022/11/24 01:29:28;;;;;;;13.67;2.93;;;;;;;;;;507855;29;1400;-60
2022/11/24 01:29:43;;;;;;;14.87;3.00;;;;;;;;;;508928;29;943;-60
2022/11/24 01:29:58;;;;;;;13.80;2.78;;;;;;;;;;506336;29;1188;-60
2022/11/24 01:30:13;;;;;;;14.33;2.90;;;;;;;;;;508208;28;1216;-60
2022/11/24 01:30:29;;;;;;;13.57;2.90;;;;;;;;;;510138;28;1196;-60
2022/11/24 01:30:45;;;;;;;12.10;2.75;;;;;;;;;;510828;28;1292;-60
2022/11/24 01:31:04;;;;;;;12.18;2.70;;;;;;;;;;508806;28;1235;-61
2022/11/24 01:31:20;;;;;;;14.13;2.83;;;;;;;;;;513061;28;1431;-60
2022/11/24 01:31:35;;;;;;;13.90;2.90;;;;;;;;;;512804;28;1016;-59
2022/11/24 01:31:51;;;;;;;10.80;2.60;;;;;;;;;;511346;28;1168;-60
2022/11/24 01:32:06;;;;;;;12.93;2.53;;;;;;;;;;510955;28;1053;-59
2022/11/24 01:32:22;;;;;;;16.50;2.80;;;;;;;;;;512565;28;1150;-60
2022/11/24 01:32:37;;;;;;;14.95;3.05;;;;;;;;;;512085;28;1138;-60
2022/11/24 01:32:52;;;;;;;13.87;2.90;;;;;;;;;;512602;28;1212;-60
2022/11/24 01:33:07;;;;;;;14.60;2.77;;;;;;;;;;511696;28;1175;-60
2022/11/24 01:33:23;;;;;;;15.65;3.00;;;;;;;;;;510577;28;1143;-59
2022/11/24 01:33:38;;;;;;;14.93;3.07;;;;;;;;;;510238;28;1373;-59
2022/11/24 01:33:53;;;;;;;14.40;2.90;;;;;;;;;;510741;28;1209;-59
2022/11/24 01:34:09;;;;;;;13.20;2.55;;;;;;;;;;509740;28;1051;-59
2022/11/24 01:34:24;;;;;;;10.93;2.40;;;;;;;;;;512577;28;1139;-59
2022/11/24 01:34:39;;;;;;;11.87;2.63;;;;;;;;;;511100;28;1168;-59
2022/11/24 01:34:55;;;;;;;14.20;3.13;;;;;;;;;;510766;28;1062;-59
2022/11/24 01:35:10;;;;;;;13.13;2.83;;;;;;;;;;510462;28;1222;-59
2022/11/24 01:35:25;;;;;;;14.13;2.63;;;;;;;;;;509132;28;1251;-59
2022/11/24 01:35:40;;;;;;;15.40;2.87;;;;;;;;;;512523;28;1185;-59
2022/11/24 01:35:57;;;;;;;13.60;2.70;;;;;;;;;;512404;28;1198;-59
2022/11/24 01:36:12;;;;;;;14.32;2.72;;;;;;;;;;514588;28;1590;-59
2022/11/24 01:36:28;;;;;;;15.48;2.80;;;;;;;;;;512939;28;1153;-59
2022/11/24 01:36:43;;;;;;;14.23;3.00;;;;;;;;;;512387;28;1307;-59
2022/11/24 01:36:58;;;;;;;13.20;2.80;;;;;;;;;;512586;28;1119;-59
2022/11/24 01:37:14;;;;;;;15.10;2.47;;;;;;;;;;511714;28;1012;-59
2022/11/24 01:37:29;;;;;;;15.87;2.60;;;;;;;;;;512663;28;1136;-59